sensor_id;sensor_type;location;lat;lon;timestamp;pressure;altitude;pressure_sealevel;temperature;humidity
1472;BME280;963;42.644;23.336;2022-12-07T00:00:52;94192.47;;;7.48;78.24
1472;BME280;963;42.644;23.336;2022-12-07T00:03:17;94175.47;;;7.42;78.81
1472;BME280;963;42.644;23.336;2022-12-07T00:05:42;94195.94;;;7.52;78.55
1472;BME280;963;42.644;23.336;2022-12-07T00:08:08;94202.69;;;7.53;78.95
1472;BME280;963;42.644;23.336;2022-12-07T00:10:34;94195.94;;;7.52;78.78
1472;BME280;963;42.644;23.336;2022-12-07T00:12:59;94196.94;;;7.47;78.82
1472;BME280;963;42.644;23.336;2022-12-07T00:15:25;94177.66;;;7.40;79.43
1472;BME280;963;42.644;23.336;2022-12-07T00:17:50;94195.88;;;7.36;79.22
1472;BME280;963;42.644;23.336;2022-12-07T00:20:16;94175.19;;;7.31;80.02
1472;BME280;963;42.644;23.336;2022-12-07T00:22:41;94178.41;;;7.25;79.92
1472;BME280;963;42.644;23.336;2022-12-07T00:25:07;94171.97;;;7.22;80.36
1472;BME280;963;42.644;23.336;2022-12-07T00:27:32;94191.09;;;7.10;80.45
1472;BME280;963;42.644;23.336;2022-12-07T00:29:57;94167.09;;;7.20;80.30
1472;BME280;963;42.644;23.336;2022-12-07T00:32:23;94176.44;;;7.21;80.61
1472;BME280;963;42.644;23.336;2022-12-07T00:34:48;94179.50;;;7.24;80.54
1472;BME280;963;42.644;23.336;2022-12-07T00:37:13;94191.97;;;7.14;80.88
1472;BME280;963;42.644;23.336;2022-12-07T00:39:39;94184.72;;;7.24;80.35
1472;BME280;963;42.644;23.336;2022-12-07T00:42:04;94185.16;;;7.26;80.05
1472;BME280;963;42.644;23.336;2022-12-07T00:44:30;94177.81;;;7.31;79.89
1472;BME280;963;42.644;23.336;2022-12-07T00:46:55;94157.13;;;7.26;79.98
1472;BME280;963;42.644;23.336;2022-12-07T00:49:21;94156.13;;;7.31;79.73
1472;BME280;963;42.644;23.336;2022-12-07T00:51:48;94179.19;;;7.41;79.55
1472;BME280;963;42.644;23.336;2022-12-07T00:54:14;94167.31;;;7.43;80.15
1472;BME280;963;42.644;23.336;2022-12-07T00:56:39;94174.91;;;7.48;79.30
1472;BME280;963;42.644;23.336;2022-12-07T00:59:05;94158.38;;;7.44;80.00
1472;BME280;963;42.644;23.336;2022-12-07T01:01:35;94207.06;;;7.49;79.52
1472;BME280;963;42.644;23.336;2022-12-07T01:04:01;94186.31;;;7.56;79.40
1472;BME280;963;42.644;23.336;2022-12-07T01:06:28;94166.91;;;7.57;79.21
1472;BME280;963;42.644;23.336;2022-12-07T01:08:54;94173.75;;;7.62;79.01
1472;BME280;963;42.644;23.336;2022-12-07T01:11:28;94188.69;;;7.61;78.74
1472;BME280;963;42.644;23.336;2022-12-07T01:13:56;94180.22;;;7.52;79.46
1472;BME280;963;42.644;23.336;2022-12-07T01:16:23;94183.94;;;7.51;79.39
1472;BME280;963;42.644;23.336;2022-12-07T01:18:50;94164.34;;;7.45;79.44
1472;BME280;963;42.644;23.336;2022-12-07T01:21:23;94155.22;;;7.39;80.08
1472;BME280;963;42.644;23.336;2022-12-07T01:23:49;94154.78;;;7.37;80.23
1472;BME280;963;42.644;23.336;2022-12-07T01:26:18;94144.66;;;7.35;80.33
1472;BME280;963;42.644;23.336;2022-12-07T01:28:44;94155.28;;;7.42;79.86
1472;BME280;963;42.644;23.336;2022-12-07T01:31:12;94149.75;;;7.44;79.89
1472;BME280;963;42.644;23.336;2022-12-07T01:33:41;94154.31;;;7.47;79.25
1472;BME280;963;42.644;23.336;2022-12-07T01:38:38;94150.19;;;7.46;79.68
1472;BME280;963;42.644;23.336;2022-12-07T01:41:04;94157.16;;;7.42;79.31
1472;BME280;963;42.644;23.336;2022-12-07T01:43:32;94165.75;;;7.42;79.63
1472;BME280;963;42.644;23.336;2022-12-07T01:45:58;94169.38;;;7.38;79.95
1472;BME280;963;42.644;23.336;2022-12-07T01:48:38;94161.63;;;7.41;80.44
1472;BME280;963;42.644;23.336;2022-12-07T01:51:09;94155.63;;;7.41;79.75
1472;BME280;963;42.644;23.336;2022-12-07T01:53:38;94151.06;;;7.38;79.63
1472;BME280;963;42.644;23.336;2022-12-07T01:56:07;94149.13;;;7.35;80.08
1472;BME280;963;42.644;23.336;2022-12-07T01:58:35;94142.72;;;7.04;80.76
1472;BME280;963;42.644;23.336;2022-12-07T02:01:01;94135.28;;;7.18;80.44
1472;BME280;963;42.644;23.336;2022-12-07T02:03:34;94129.19;;;7.14;81.06
1472;BME280;963;42.644;23.336;2022-12-07T02:06:01;94138.81;;;7.10;81.21
1472;BME280;963;42.644;23.336;2022-12-07T02:08:26;94125.47;;;7.15;80.97
1472;BME280;963;42.644;23.336;2022-12-07T02:10:52;94129.63;;;7.16;80.56
1472;BME280;963;42.644;23.336;2022-12-07T02:13:27;94128.19;;;7.19;80.85
1472;BME280;963;42.644;23.336;2022-12-07T02:21:16;94137.91;;;7.34;80.20
1472;BME280;963;42.644;23.336;2022-12-07T02:24:01;94131.91;;;7.34;80.16
1472;BME280;963;42.644;23.336;2022-12-07T02:29:20;94122.13;;;7.31;79.80
1472;BME280;963;42.644;23.336;2022-12-07T02:32:11;94123.63;;;7.32;80.10
1472;BME280;963;42.644;23.336;2022-12-07T02:34:44;94116.47;;;7.29;80.01
1472;BME280;963;42.644;23.336;2022-12-07T02:37:21;94146.66;;;6.98;81.20
1472;BME280;963;42.644;23.336;2022-12-07T02:39:55;94111.16;;;6.97;82.00
1472;BME280;963;42.644;23.336;2022-12-07T02:42:31;94110.81;;;6.99;81.58
1472;BME280;963;42.644;23.336;2022-12-07T02:45:00;94131.84;;;7.02;81.61
1472;BME280;963;42.644;23.336;2022-12-07T02:47:26;94113.69;;;6.94;81.78
1472;BME280;963;42.644;23.336;2022-12-07T02:49:54;94133.19;;;6.96;82.02
1472;BME280;963;42.644;23.336;2022-12-07T02:52:19;94110.56;;;6.88;82.08
1472;BME280;963;42.644;23.336;2022-12-07T02:54:44;94126.84;;;6.97;82.57
1472;BME280;963;42.644;23.336;2022-12-07T03:15:29;94086.97;;;7.00;81.58
1472;BME280;963;42.644;23.336;2022-12-07T03:17:57;94106.34;;;6.99;81.18
1472;BME280;963;42.644;23.336;2022-12-07T03:20:25;94103.31;;;6.97;81.14
1472;BME280;963;42.644;23.336;2022-12-07T03:22:54;94089.88;;;6.83;81.70
1472;BME280;963;42.644;23.336;2022-12-07T03:25:20;94126.34;;;6.92;81.45
1472;BME280;963;42.644;23.336;2022-12-07T03:30:29;94091.66;;;6.79;81.85
1472;BME280;963;42.644;23.336;2022-12-07T03:33:04;94099.91;;;6.81;82.12
1472;BME280;963;42.644;23.336;2022-12-07T03:35:36;94092.31;;;6.76;82.27
1472;BME280;963;42.644;23.336;2022-12-07T03:40:48;94093.97;;;6.96;81.44
1472;BME280;963;42.644;23.336;2022-12-07T03:43:17;94094.25;;;7.07;80.56
1472;BME280;963;42.644;23.336;2022-12-07T03:45:50;94096.09;;;7.06;80.68
1472;BME280;963;42.644;23.336;2022-12-07T03:48:31;94096.28;;;7.13;80.84
1472;BME280;963;42.644;23.336;2022-12-07T03:51:14;94092.81;;;7.09;80.58
1472;BME280;963;42.644;23.336;2022-12-07T03:53:49;94084.31;;;7.12;80.02
1472;BME280;963;42.644;23.336;2022-12-07T03:56:18;94094.19;;;7.19;80.28
1472;BME280;963;42.644;23.336;2022-12-07T03:58:44;94091.81;;;7.14;80.38
1472;BME280;963;42.644;23.336;2022-12-07T04:01:10;94082.97;;;7.18;79.96
1472;BME280;963;42.644;23.336;2022-12-07T04:03:35;94100.94;;;7.20;80.21
1472;BME280;963;42.644;23.336;2022-12-07T04:06:01;94089.72;;;7.19;80.48
1472;BME280;963;42.644;23.336;2022-12-07T04:08:26;94076.88;;;7.14;80.00
1472;BME280;963;42.644;23.336;2022-12-07T04:10:52;94083.53;;;7.12;80.17
1472;BME280;963;42.644;23.336;2022-12-07T04:13:17;94090.22;;;7.09;80.15
1472;BME280;963;42.644;23.336;2022-12-07T04:15:43;94095.63;;;7.16;79.96
1472;BME280;963;42.644;23.336;2022-12-07T04:18:08;94088.44;;;7.13;80.00
1472;BME280;963;42.644;23.336;2022-12-07T04:20:33;94082.78;;;7.11;80.57
1472;BME280;963;42.644;23.336;2022-12-07T04:22:59;94087.16;;;7.07;80.88
1472;BME280;963;42.644;23.336;2022-12-07T04:25:25;94081.06;;;7.03;80.90
1472;BME280;963;42.644;23.336;2022-12-07T04:27:51;94087.59;;;7.09;80.57
1472;BME280;963;42.644;23.336;2022-12-07T04:30:16;94090.72;;;7.15;80.04
1472;BME280;963;42.644;23.336;2022-12-07T04:32:42;94083.88;;;7.10;79.85
1472;BME280;963;42.644;23.336;2022-12-07T04:35:08;94091.06;;;7.13;80.24
1472;BME280;963;42.644;23.336;2022-12-07T04:37:33;94088.69;;;7.08;80.61
1472;BME280;963;42.644;23.336;2022-12-07T04:39:59;94089.78;;;7.07;80.73
1472;BME280;963;42.644;23.336;2022-12-07T04:42:24;94104.59;;;7.03;81.16
1472;BME280;963;42.644;23.336;2022-12-07T04:44:49;94119.66;;;7.06;80.58
1472;BME280;963;42.644;23.336;2022-12-07T04:47:16;94120.53;;;6.98;81.07
1472;BME280;963;42.644;23.336;2022-12-07T04:49:41;94100.47;;;7.02;81.29
1472;BME280;963;42.644;23.336;2022-12-07T04:52:07;94088.13;;;6.87;81.41
1472;BME280;963;42.644;23.336;2022-12-07T04:54:32;94094.59;;;6.77;82.52
1472;BME280;963;42.644;23.336;2022-12-07T04:56:58;94094.69;;;6.81;81.63
1472;BME280;963;42.644;23.336;2022-12-07T04:59:23;94100.09;;;6.88;81.74
1472;BME280;963;42.644;23.336;2022-12-07T05:01:48;94095.34;;;6.78;81.98
1472;BME280;963;42.644;23.336;2022-12-07T05:04:14;94093.41;;;6.75;82.81
1472;BME280;963;42.644;23.336;2022-12-07T05:06:41;94091.66;;;6.79;82.34
1472;BME280;963;42.644;23.336;2022-12-07T05:09:07;94092.41;;;6.79;82.01
1472;BME280;963;42.644;23.336;2022-12-07T05:11:32;94105.31;;;6.88;82.17
1472;BME280;963;42.644;23.336;2022-12-07T05:14:13;94097.06;;;6.86;82.56
1472;BME280;963;42.644;23.336;2022-12-07T05:16:40;94107.94;;;6.88;82.24
1472;BME280;963;42.644;23.336;2022-12-07T05:19:06;94112.84;;;6.89;82.36
1472;BME280;963;42.644;23.336;2022-12-07T05:21:32;94103.56;;;6.92;81.45
1472;BME280;963;42.644;23.336;2022-12-07T05:23:58;94099.84;;;6.93;81.62
1472;BME280;963;42.644;23.336;2022-12-07T05:26:23;94100.19;;;6.92;80.93
1472;BME280;963;42.644;23.336;2022-12-07T05:28:53;94093.41;;;6.75;82.09
1472;BME280;963;42.644;23.336;2022-12-07T05:31:19;94108.34;;;6.74;82.67
1472;BME280;963;42.644;23.336;2022-12-07T05:33:45;94104.09;;;6.70;82.76
1472;BME280;963;42.644;23.336;2022-12-07T05:36:10;94104.09;;;6.70;83.01
1472;BME280;963;42.644;23.336;2022-12-07T05:38:35;94105.41;;;6.64;83.05
1472;BME280;963;42.644;23.336;2022-12-07T05:41:05;94109.34;;;6.57;84.42
1472;BME280;963;42.644;23.336;2022-12-07T05:43:32;94109.09;;;6.63;84.09
1472;BME280;963;42.644;23.336;2022-12-07T05:45:58;94086.44;;;6.67;84.05
1472;BME280;963;42.644;23.336;2022-12-07T05:48:23;94081.34;;;6.70;84.13
1472;BME280;963;42.644;23.336;2022-12-07T05:50:50;94087.84;;;6.76;83.28
1472;BME280;963;42.644;23.336;2022-12-07T05:53:15;94079.16;;;6.72;83.11
1472;BME280;963;42.644;23.336;2022-12-07T05:55:41;94083.72;;;6.75;83.43
1472;BME280;963;42.644;23.336;2022-12-07T05:58:07;94095.69;;;6.76;83.46
1472;BME280;963;42.644;23.336;2022-12-07T06:00:51;94096.88;;;6.79;83.56
1472;BME280;963;42.644;23.336;2022-12-07T06:03:16;94091.66;;;6.79;83.13
1472;BME280;963;42.644;23.336;2022-12-07T06:05:42;94093.34;;;6.87;83.00
1472;BME280;963;42.644;23.336;2022-12-07T06:08:07;94091.16;;;6.89;82.53
1472;BME280;963;42.644;23.336;2022-12-07T06:10:33;94095.72;;;6.92;82.42
1472;BME280;963;42.644;23.336;2022-12-07T06:12:58;94092.78;;;6.94;82.76
1472;BME280;963;42.644;23.336;2022-12-07T06:15:23;94078.69;;;6.98;83.45
1472;BME280;963;42.644;23.336;2022-12-07T06:17:49;94094.13;;;7.03;82.02
1472;BME280;963;42.644;23.336;2022-12-07T06:20:14;94103.84;;;7.03;82.20
1472;BME280;963;42.644;23.336;2022-12-07T06:22:40;94111.81;;;7.06;81.93
1472;BME280;963;42.644;23.336;2022-12-07T06:25:05;94107.41;;;7.10;82.11
1472;BME280;963;42.644;23.336;2022-12-07T06:27:32;94100.66;;;7.09;81.60
1472;BME280;963;42.644;23.336;2022-12-07T06:29:58;94119.06;;;7.13;81.77
1472;BME280;963;42.644;23.336;2022-12-07T06:32:25;94107.16;;;7.15;81.60
1472;BME280;963;42.644;23.336;2022-12-07T06:34:50;94116.53;;;7.16;81.37
1472;BME280;963;42.644;23.336;2022-12-07T06:37:16;94104.56;;;7.15;81.42
1472;BME280;963;42.644;23.336;2022-12-07T06:39:41;94113.59;;;7.18;81.40
1472;BME280;963;42.644;23.336;2022-12-07T06:42:06;94097.81;;;7.14;81.02
1472;BME280;963;42.644;23.336;2022-12-07T06:44:32;94101.03;;;7.24;80.73
1472;BME280;963;42.644;23.336;2022-12-07T06:46:58;94108.44;;;7.21;80.63
1472;BME280;963;42.644;23.336;2022-12-07T06:49:23;94112.75;;;7.30;81.07
1472;BME280;963;42.644;23.336;2022-12-07T06:51:48;94107.94;;;7.32;80.53
1472;BME280;963;42.644;23.336;2022-12-07T06:54:15;94107.69;;;7.37;81.13
1472;BME280;963;42.644;23.336;2022-12-07T06:56:41;94103.31;;;7.41;80.45
1472;BME280;963;42.644;23.336;2022-12-07T06:59:07;94117.47;;;7.40;80.17
1472;BME280;963;42.644;23.336;2022-12-07T07:01:34;94108.88;;;7.39;80.69
1472;BME280;963;42.644;23.336;2022-12-07T07:03:59;94130.34;;;7.45;79.74
1472;BME280;963;42.644;23.336;2022-12-07T07:06:25;94135.66;;;7.48;79.59
1472;BME280;963;42.644;23.336;2022-12-07T07:08:50;94118.03;;;7.45;79.58
1472;BME280;963;42.644;23.336;2022-12-07T07:11:16;94113.69;;;7.37;80.42
1472;BME280;963;42.644;23.336;2022-12-07T07:13:42;94115.88;;;7.35;79.34
1472;BME280;963;42.644;23.336;2022-12-07T07:16:07;94106.59;;;7.22;80.82
1472;BME280;963;42.644;23.336;2022-12-07T07:18:33;94126.41;;;7.23;81.01
1472;BME280;963;42.644;23.336;2022-12-07T07:20:59;94111.66;;;7.31;80.57
1472;BME280;963;42.644;23.336;2022-12-07T07:23:24;94123.38;;;7.37;80.53
1472;BME280;963;42.644;23.336;2022-12-07T07:25:50;94111.16;;;7.41;80.85
1472;BME280;963;42.644;23.336;2022-12-07T07:28:16;94108.06;;;7.51;80.33
1472;BME280;963;42.644;23.336;2022-12-07T07:30:41;94115.22;;;7.54;80.28
1472;BME280;963;42.644;23.336;2022-12-07T07:33:07;94125.03;;;7.57;79.57
1472;BME280;963;42.644;23.336;2022-12-07T07:35:34;94126.47;;;7.55;79.57
1472;BME280;963;42.644;23.336;2022-12-07T07:37:59;94133.97;;;7.56;79.74
1472;BME280;963;42.644;23.336;2022-12-07T07:40:26;94119.78;;;7.57;80.43
1472;BME280;963;42.644;23.336;2022-12-07T07:42:53;94123.91;;;7.42;80.89
1472;BME280;963;42.644;23.336;2022-12-07T07:45:20;94135.31;;;7.50;80.42
1472;BME280;963;42.644;23.336;2022-12-07T07:47:46;94116.28;;;7.37;81.30
1472;BME280;963;42.644;23.336;2022-12-07T07:50:12;94138.53;;;7.43;80.40
1472;BME280;963;42.644;23.336;2022-12-07T07:52:38;94112.88;;;7.49;80.25
1472;BME280;963;42.644;23.336;2022-12-07T07:55:04;94116.06;;;7.58;80.29
1472;BME280;963;42.644;23.336;2022-12-07T07:57:29;94113.28;;;7.67;79.91
1472;BME280;963;42.644;23.336;2022-12-07T07:59:55;94129.16;;;7.74;78.83
1472;BME280;963;42.644;23.336;2022-12-07T08:02:21;94119.09;;;7.76;79.36
1472;BME280;963;42.644;23.336;2022-12-07T08:04:47;94126.19;;;7.75;78.55
1472;BME280;963;42.644;23.336;2022-12-07T08:07:13;94117.91;;;7.73;78.58
1472;BME280;963;42.644;23.336;2022-12-07T08:09:39;94121.97;;;7.71;78.76
1472;BME280;963;42.644;23.336;2022-12-07T08:12:05;94113.38;;;7.70;78.96
1472;BME280;963;42.644;23.336;2022-12-07T08:14:30;94129.84;;;7.71;78.70
1472;BME280;963;42.644;23.336;2022-12-07T08:16:56;94116.91;;;7.78;77.99
1472;BME280;963;42.644;23.336;2022-12-07T08:19:22;94116.84;;;7.90;78.50
1472;BME280;963;42.644;23.336;2022-12-07T08:21:47;94135.31;;;7.97;77.98
1472;BME280;963;42.644;23.336;2022-12-07T08:24:13;94126.81;;;7.84;78.17
1472;BME280;963;42.644;23.336;2022-12-07T08:26:39;94110.00;;;7.86;77.53
1472;BME280;963;42.644;23.336;2022-12-07T08:29:05;94113.38;;;7.86;77.93
1472;BME280;963;42.644;23.336;2022-12-07T08:31:30;94121.72;;;7.92;77.67
1472;BME280;963;42.644;23.336;2022-12-07T08:33:55;94105.50;;;7.70;77.45
1472;BME280;963;42.644;23.336;2022-12-07T08:36:21;94117.16;;;7.89;77.52
1472;BME280;963;42.644;23.336;2022-12-07T08:38:49;94113.19;;;7.95;77.36
1472;BME280;963;42.644;23.336;2022-12-07T08:41:15;94109.56;;;7.83;77.90
1472;BME280;963;42.644;23.336;2022-12-07T08:43:41;94109.47;;;7.96;77.42
1472;BME280;963;42.644;23.336;2022-12-07T08:46:10;94097.63;;;8.02;77.56
1472;BME280;963;42.644;23.336;2022-12-07T08:48:48;94102.94;;;8.05;76.63
1472;BME280;963;42.644;23.336;2022-12-07T08:51:17;94111.22;;;8.23;76.78
1472;BME280;963;42.644;23.336;2022-12-07T08:53:42;94112.88;;;8.15;77.01
1472;BME280;963;42.644;23.336;2022-12-07T08:56:09;94109.16;;;8.16;76.90
1472;BME280;963;42.644;23.336;2022-12-07T08:58:35;94110.38;;;8.19;77.05
1472;BME280;963;42.644;23.336;2022-12-07T09:01:02;94094.38;;;8.24;76.76
1472;BME280;963;42.644;23.336;2022-12-07T09:03:28;94089.72;;;8.18;76.74
1472;BME280;963;42.644;23.336;2022-12-07T09:05:54;94088.22;;;8.16;76.42
1472;BME280;963;42.644;23.336;2022-12-07T09:08:21;94094.88;;;8.30;76.21
1472;BME280;963;42.644;23.336;2022-12-07T09:10:47;94098.88;;;8.24;75.97
1472;BME280;963;42.644;23.336;2022-12-07T09:13:13;94084.19;;;8.19;76.28
1472;BME280;963;42.644;23.336;2022-12-07T09:15:38;94086.44;;;8.36;76.27
1472;BME280;963;42.644;23.336;2022-12-07T09:18:04;94077.50;;;8.57;76.27
1472;BME280;963;42.644;23.336;2022-12-07T09:20:30;94094.72;;;8.77;75.52
1472;BME280;963;42.644;23.336;2022-12-07T09:22:55;94063.94;;;8.55;75.79
1472;BME280;963;42.644;23.336;2022-12-07T09:25:20;94065.06;;;8.73;74.80
1472;BME280;963;42.644;23.336;2022-12-07T09:27:46;94074.69;;;8.88;74.85
1472;BME280;963;42.644;23.336;2022-12-07T09:30:11;94084.38;;;8.84;74.81
1472;BME280;963;42.644;23.336;2022-12-07T09:32:37;94074.44;;;8.93;73.92
1472;BME280;963;42.644;23.336;2022-12-07T09:35:02;94086.16;;;8.99;73.70
1472;BME280;963;42.644;23.336;2022-12-07T09:37:28;94042.06;;;8.86;73.55
1472;BME280;963;42.644;23.336;2022-12-07T09:39:53;94054.81;;;9.06;73.20
1472;BME280;963;42.644;23.336;2022-12-07T09:42:29;94055.25;;;8.89;73.57
1472;BME280;963;42.644;23.336;2022-12-07T09:44:58;94048.00;;;8.83;74.21
1472;BME280;963;42.644;23.336;2022-12-07T09:47:25;94053.19;;;8.98;73.92
1472;BME280;963;42.644;23.336;2022-12-07T09:49:51;94061.88;;;9.02;73.53
1472;BME280;963;42.644;23.336;2022-12-07T09:52:25;94048.06;;;9.05;73.35
1472;BME280;963;42.644;23.336;2022-12-07T09:54:52;94048.75;;;9.02;73.35
1472;BME280;963;42.644;23.336;2022-12-07T09:57:25;94056.41;;;8.92;74.34
1472;BME280;963;42.644;23.336;2022-12-07T09:59:54;94055.81;;;8.98;74.06
1472;BME280;963;42.644;23.336;2022-12-07T10:02:41;94037.69;;;9.13;73.56
1472;BME280;963;42.644;23.336;2022-12-07T10:05:13;94029.69;;;9.28;72.98
1472;BME280;963;42.644;23.336;2022-12-07T10:07:39;94021.47;;;9.30;72.61
1472;BME280;963;42.644;23.336;2022-12-07T10:10:13;94024.72;;;9.46;73.12
1472;BME280;963;42.644;23.336;2022-12-07T10:13:03;94031.59;;;9.54;72.34
1472;BME280;963;42.644;23.336;2022-12-07T10:18:37;94021.91;;;9.58;72.21
1472;BME280;963;42.644;23.336;2022-12-07T10:21:14;94031.75;;;9.65;71.59
1472;BME280;963;42.644;23.336;2022-12-07T10:28:50;94014.72;;;9.55;71.75
1472;BME280;963;42.644;23.336;2022-12-07T10:31:18;93999.78;;;9.59;71.65
1472;BME280;963;42.644;23.336;2022-12-07T10:33:51;93982.94;;;9.60;72.19
1472;BME280;963;42.644;23.336;2022-12-07T10:36:20;93998.56;;;9.53;71.41
1472;BME280;963;42.644;23.336;2022-12-07T10:38:59;93984.03;;;9.59;71.86
1472;BME280;963;42.644;23.336;2022-12-07T10:41:25;93983.09;;;9.71;71.64
1472;BME280;963;42.644;23.336;2022-12-07T10:43:53;93982.34;;;9.70;71.39
1472;BME280;963;42.644;23.336;2022-12-07T10:51:49;93974.06;;;9.68;72.16
1472;BME280;963;42.644;23.336;2022-12-07T10:54:56;93969.88;;;9.94;71.94
1472;BME280;963;42.644;23.336;2022-12-07T10:58:21;93957.41;;;10.17;70.72
1472;BME280;963;42.644;23.336;2022-12-07T11:06:16;93950.56;;;10.09;70.27
1472;BME280;963;42.644;23.336;2022-12-07T11:11:45;93956.97;;;10.42;69.08
1472;BME280;963;42.644;23.336;2022-12-07T11:14:20;93950.44;;;10.28;69.25
1472;BME280;963;42.644;23.336;2022-12-07T11:17:03;93942.78;;;10.50;69.32
1472;BME280;963;42.644;23.336;2022-12-07T11:19:49;93948.84;;;10.54;68.70
1472;BME280;963;42.644;23.336;2022-12-07T11:22:34;93953.03;;;10.62;68.33
1472;BME280;963;42.644;23.336;2022-12-07T11:31:08;93923.38;;;11.06;67.29
1472;BME280;963;42.644;23.336;2022-12-07T11:33:57;93921.50;;;11.10;66.54
1472;BME280;963;42.644;23.336;2022-12-07T11:36:41;93908.41;;;10.69;67.73
1472;BME280;963;42.644;23.336;2022-12-07T11:41:49;93917.00;;;10.66;67.59
1472;BME280;963;42.644;23.336;2022-12-07T11:44:30;93921.69;;;10.83;67.71
1472;BME280;963;42.644;23.336;2022-12-07T11:49:54;93894.63;;;11.34;65.35
1472;BME280;963;42.644;23.336;2022-12-07T11:52:39;93912.00;;;11.49;65.21
1472;BME280;963;42.644;23.336;2022-12-07T11:55:19;93900.09;;;11.70;64.42
1472;BME280;963;42.644;23.336;2022-12-07T11:57:51;93891.91;;;11.85;64.17
1472;BME280;963;42.644;23.336;2022-12-07T12:00:20;93899.53;;;12.08;63.78
1472;BME280;963;42.644;23.336;2022-12-07T12:03:03;93882.31;;;12.43;62.14
1472;BME280;963;42.644;23.336;2022-12-07T12:05:30;93883.88;;;12.87;61.09
1472;BME280;963;42.644;23.336;2022-12-07T12:08:06;93892.94;;;12.71;61.15
1472;BME280;963;42.644;23.336;2022-12-07T12:10:55;93882.97;;;14.00;58.81
1472;BME280;963;42.644;23.336;2022-12-07T12:21:39;93850.75;;;16.32;52.06
1472;BME280;963;42.644;23.336;2022-12-07T12:24:15;93859.63;;;16.79;49.35
1472;BME280;963;42.644;23.336;2022-12-07T12:26:51;93848.25;;;17.02;48.81
1472;BME280;963;42.644;23.336;2022-12-07T12:29:31;93843.41;;;17.21;48.39
1472;BME280;963;42.644;23.336;2022-12-07T12:32:13;93844.06;;;17.71;47.33
1472;BME280;963;42.644;23.336;2022-12-07T12:35:02;93834.22;;;18.08;46.24
1472;BME280;963;42.644;23.336;2022-12-07T12:42:50;93820.56;;;18.06;45.93
1472;BME280;963;42.644;23.336;2022-12-07T12:45:29;93814.66;;;18.51;45.11
1472;BME280;963;42.644;23.336;2022-12-07T12:48:04;93832.94;;;19.33;43.65
1472;BME280;963;42.644;23.336;2022-12-07T12:50:36;93835.16;;;20.09;41.87
1472;BME280;963;42.644;23.336;2022-12-07T13:00:43;93849.53;;;20.79;39.83
1472;BME280;963;42.644;23.336;2022-12-07T13:03:26;93837.19;;;21.67;38.34
1472;BME280;963;42.644;23.336;2022-12-07T13:08:56;93820.47;;;22.90;37.11
1472;BME280;963;42.644;23.336;2022-12-07T13:11:44;93822.75;;;25.13;33.77
1472;BME280;963;42.644;23.336;2022-12-07T13:14:42;93814.09;;;26.25;31.73
1472;BME280;963;42.644;23.336;2022-12-07T13:17:54;93816.69;;;27.14;30.94
1472;BME280;963;42.644;23.336;2022-12-07T13:20:05;93810.47;;;28.72;29.22
1472;BME280;963;42.644;23.336;2022-12-07T13:27:51;93831.63;;;30.18;27.35
1472;BME280;963;42.644;23.336;2022-12-07T13:30:21;93830.88;;;30.12;27.03
1472;BME280;963;42.644;23.336;2022-12-07T13:32:55;93823.63;;;29.87;27.59
1472;BME280;963;42.644;23.336;2022-12-07T13:35:33;93808.84;;;28.54;27.83
1472;BME280;963;42.644;23.336;2022-12-07T13:38:02;93828.78;;;26.24;30.57
1472;BME280;963;42.644;23.336;2022-12-07T13:40:29;93824.03;;;23.64;33.68
1472;BME280;963;42.644;23.336;2022-12-07T13:43:03;93821.19;;;22.82;35.16
1472;BME280;963;42.644;23.336;2022-12-07T13:45:31;93841.69;;;21.35;36.95
1472;BME280;963;42.644;23.336;2022-12-07T13:48:31;93829.13;;;19.63;40.17
1472;BME280;963;42.644;23.336;2022-12-07T13:50:59;93828.03;;;19.16;41.29
1472;BME280;963;42.644;23.336;2022-12-07T13:53:26;93815.16;;;18.65;42.15
1472;BME280;963;42.644;23.336;2022-12-07T13:55:59;93819.84;;;17.86;44.21
1472;BME280;963;42.644;23.336;2022-12-07T13:58:26;93818.41;;;17.38;45.43
1472;BME280;963;42.644;23.336;2022-12-07T14:00:55;93818.63;;;16.80;46.80
1472;BME280;963;42.644;23.336;2022-12-07T14:03:28;93812.09;;;16.31;48.16
1472;BME280;963;42.644;23.336;2022-12-07T14:06:17;93822.34;;;16.02;49.21
1472;BME280;963;42.644;23.336;2022-12-07T14:08:43;93825.38;;;15.70;49.50
1472;BME280;963;42.644;23.336;2022-12-07T14:11:20;93821.47;;;15.44;50.26
1472;BME280;963;42.644;23.336;2022-12-07T14:13:57;93836.69;;;15.37;50.18
1472;BME280;963;42.644;23.336;2022-12-07T14:16:35;93820.94;;;15.19;50.90
1472;BME280;963;42.644;23.336;2022-12-07T14:19:06;93820.28;;;15.11;51.54
1472;BME280;963;42.644;23.336;2022-12-07T14:22:06;93837.81;;;14.98;52.42
1472;BME280;963;42.644;23.336;2022-12-07T14:24:41;93837.94;;;14.80;52.56
1472;BME280;963;42.644;23.336;2022-12-07T14:27:17;93843.38;;;14.59;52.79
1472;BME280;963;42.644;23.336;2022-12-07T14:29:43;93831.44;;;14.29;54.08
1472;BME280;963;42.644;23.336;2022-12-07T14:34:58;93839.06;;;14.17;55.12
1472;BME280;963;42.644;23.336;2022-12-07T14:37:25;93833.47;;;14.00;55.63
1472;BME280;963;42.644;23.336;2022-12-07T14:39:50;93853.19;;;13.85;56.08
1472;BME280;963;42.644;23.336;2022-12-07T14:42:16;93848.72;;;13.64;57.01
1472;BME280;963;42.644;23.336;2022-12-07T14:44:42;93840.84;;;13.47;57.65
1472;BME280;963;42.644;23.336;2022-12-07T14:47:10;93852.56;;;13.38;58.04
1472;BME280;963;42.644;23.336;2022-12-07T14:49:36;93834.84;;;13.21;58.78
1472;BME280;963;42.644;23.336;2022-12-07T14:52:02;93834.09;;;13.13;58.71
1472;BME280;963;42.644;23.336;2022-12-07T14:54:31;93842.78;;;13.03;59.34
1472;BME280;963;42.644;23.336;2022-12-07T14:56:57;93834.47;;;12.91;60.06
1472;BME280;963;42.644;23.336;2022-12-07T14:59:23;93840.53;;;12.80;60.51
1472;BME280;963;42.644;23.336;2022-12-07T15:01:48;93843.53;;;12.72;60.94
1472;BME280;963;42.644;23.336;2022-12-07T15:04:14;93851.44;;;12.58;61.17
1472;BME280;963;42.644;23.336;2022-12-07T15:06:39;93852.56;;;12.57;61.51
1472;BME280;963;42.644;23.336;2022-12-07T15:09:05;93849.91;;;12.46;61.72
1472;BME280;963;42.644;23.336;2022-12-07T15:11:31;93859.28;;;12.18;62.51
1472;BME280;963;42.644;23.336;2022-12-07T15:13:56;93858.13;;;12.16;62.66
1472;BME280;963;42.644;23.336;2022-12-07T15:16:34;93867.13;;;12.01;62.75
1472;BME280;963;42.644;23.336;2022-12-07T15:19:00;93862.19;;;11.88;63.27
1472;BME280;963;42.644;23.336;2022-12-07T15:21:25;93866.97;;;11.69;64.01